sensor_id;sensor_type;location;lat;lon;timestamp;temperature;humidity
27164;DHT22;14685;50.618;7.024;2022-08-18T00:01:30;23.80;99.00
27164;DHT22;14685;50.618;7.024;2022-08-18T00:03:59;23.80;99.10
27164;DHT22;14685;50.618;7.024;2022-08-18T00:06:34;23.80;99.10
27164;DHT22;14685;50.618;7.024;2022-08-18T00:09:08;23.70;99.30
27164;DHT22;14685;50.618;7.024;2022-08-18T00:11:39;23.70;99.40
27164;DHT22;14685;50.618;7.024;2022-08-18T00:14:12;23.70;99.40
27164;DHT22;14685;50.618;7.024;2022-08-18T00:16:50;23.70;99.30
27164;DHT22;14685;50.618;7.024;2022-08-18T00:19:18;23.70;99.20
27164;DHT22;14685;50.618;7.024;2022-08-18T00:21:45;23.60;99.20
27164;DHT22;14685;50.618;7.024;2022-08-18T00:24:12;23.60;99.20
27164;DHT22;14685;50.618;7.024;2022-08-18T00:26:39;23.60;99.20
27164;DHT22;14685;50.618;7.024;2022-08-18T00:29:06;23.50;99.20
27164;DHT22;14685;50.618;7.024;2022-08-18T00:31:33;23.50;99.20
27164;DHT22;14685;50.618;7.024;2022-08-18T00:34:00;23.50;99.40
27164;DHT22;14685;50.618;7.024;2022-08-18T00:36:27;23.50;99.60
27164;DHT22;14685;50.618;7.024;2022-08-18T00:38:54;23.50;99.60
27164;DHT22;14685;50.618;7.024;2022-08-18T00:41:21;23.50;99.80
27164;DHT22;14685;50.618;7.024;2022-08-18T00:43:50;23.40;99.90
27164;DHT22;14685;50.618;7.024;2022-08-18T00:46:37;23.40;99.90
27164;DHT22;14685;50.618;7.024;2022-08-18T00:49:05;23.40;99.90
27164;DHT22;14685;50.618;7.024;2022-08-18T00:51:42;23.40;99.90
27164;DHT22;14685;50.618;7.024;2022-08-18T00:56:44;23.40;99.90
27164;DHT22;14685;50.618;7.024;2022-08-18T01:02:11;23.40;99.90
27164;DHT22;14685;50.618;7.024;2022-08-18T01:04:48;23.40;99.90
27164;DHT22;14685;50.618;7.024;2022-08-18T01:07:20;23.40;99.90
27164;DHT22;14685;50.618;7.024;2022-08-18T01:09:48;23.40;99.90
27164;DHT22;14685;50.618;7.024;2022-08-18T01:12:18;23.40;99.90
27164;DHT22;14685;50.618;7.024;2022-08-18T01:15:05;23.30;99.90
27164;DHT22;14685;50.618;7.024;2022-08-18T01:17:32;23.30;99.90
27164;DHT22;14685;50.618;7.024;2022-08-18T01:20:29;23.30;99.90
27164;DHT22;14685;50.618;7.024;2022-08-18T01:23:20;23.20;99.90
27164;DHT22;14685;50.618;7.024;2022-08-18T01:25:48;23.20;99.90
27164;DHT22;14685;50.618;7.024;2022-08-18T01:28:34;23.20;99.90
27164;DHT22;14685;50.618;7.024;2022-08-18T01:31:02;23.10;99.90
27164;DHT22;14685;50.618;7.024;2022-08-18T01:33:32;23.00;99.90
27164;DHT22;14685;50.618;7.024;2022-08-18T01:36:11;23.00;99.90
27164;DHT22;14685;50.618;7.024;2022-08-18T01:38:46;22.90;99.90
27164;DHT22;14685;50.618;7.024;2022-08-18T01:41:14;22.80;99.90
27164;DHT22;14685;50.618;7.024;2022-08-18T01:43:53;22.80;99.90
27164;DHT22;14685;50.618;7.024;2022-08-18T01:46:21;22.80;99.90
27164;DHT22;14685;50.618;7.024;2022-08-18T01:48:49;22.80;99.90
27164;DHT22;14685;50.618;7.024;2022-08-18T01:51:17;22.80;99.90
27164;DHT22;14685;50.618;7.024;2022-08-18T01:54:04;22.80;99.90
27164;DHT22;14685;50.618;7.024;2022-08-18T01:56:31;22.80;99.90
27164;DHT22;14685;50.618;7.024;2022-08-18T01:58:58;22.80;99.90
27164;DHT22;14685;50.618;7.024;2022-08-18T02:01:25;22.80;99.90
27164;DHT22;14685;50.618;7.024;2022-08-18T02:04:04;22.80;99.90
27164;DHT22;14685;50.618;7.024;2022-08-18T02:06:53;22.70;99.90
27164;DHT22;14685;50.618;7.024;2022-08-18T02:09:21;22.70;99.90
27164;DHT22;14685;50.618;7.024;2022-08-18T02:11:50;22.70;99.90
27164;DHT22;14685;50.618;7.024;2022-08-18T02:14:22;22.60;99.90
27164;DHT22;14685;50.618;7.024;2022-08-18T02:16:55;22.50;99.90
27164;DHT22;14685;50.618;7.024;2022-08-18T02:19:36;22.40;99.90
27164;DHT22;14685;50.618;7.024;2022-08-18T02:22:05;22.40;99.90
27164;DHT22;14685;50.618;7.024;2022-08-18T02:24:33;22.30;99.90
27164;DHT22;14685;50.618;7.024;2022-08-18T02:27:00;22.40;99.90
27164;DHT22;14685;50.618;7.024;2022-08-18T02:29:27;22.30;99.90
27164;DHT22;14685;50.618;7.024;2022-08-18T02:31:54;22.30;99.90
27164;DHT22;14685;50.618;7.024;2022-08-18T02:34:21;22.20;99.90
27164;DHT22;14685;50.618;7.024;2022-08-18T02:36:47;22.20;99.90
27164;DHT22;14685;50.618;7.024;2022-08-18T02:39:14;22.20;99.90
27164;DHT22;14685;50.618;7.024;2022-08-18T02:41:41;22.20;99.90
27164;DHT22;14685;50.618;7.024;2022-08-18T02:44:08;22.20;99.90
27164;DHT22;14685;50.618;7.024;2022-08-18T02:46:36;22.10;99.90
27164;DHT22;14685;50.618;7.024;2022-08-18T02:49:05;22.10;99.90
27164;DHT22;14685;50.618;7.024;2022-08-18T02:51:33;22.10;99.90
27164;DHT22;14685;50.618;7.024;2022-08-18T02:54:01;22.10;99.90
27164;DHT22;14685;50.618;7.024;2022-08-18T02:56:29;22.10;99.90
27164;DHT22;14685;50.618;7.024;2022-08-18T02:59:09;22.10;99.90
27164;DHT22;14685;50.618;7.024;2022-08-18T03:01:39;22.00;99.90
27164;DHT22;14685;50.618;7.024;2022-08-18T03:04:09;22.00;99.90
27164;DHT22;14685;50.618;7.024;2022-08-18T03:06:37;21.90;99.90
27164;DHT22;14685;50.618;7.024;2022-08-18T03:09:07;21.80;99.90
27164;DHT22;14685;50.618;7.024;2022-08-18T03:11:35;21.90;99.90
27164;DHT22;14685;50.618;7.024;2022-08-18T03:14:02;21.90;99.90
27164;DHT22;14685;50.618;7.024;2022-08-18T03:16:31;21.90;99.90
27164;DHT22;14685;50.618;7.024;2022-08-18T03:19:02;21.90;99.90
27164;DHT22;14685;50.618;7.024;2022-08-18T03:21:31;21.90;99.90
27164;DHT22;14685;50.618;7.024;2022-08-18T03:24:01;21.90;99.90
27164;DHT22;14685;50.618;7.024;2022-08-18T03:26:38;21.90;99.90
27164;DHT22;14685;50.618;7.024;2022-08-18T03:29:05;21.90;99.90
27164;DHT22;14685;50.618;7.024;2022-08-18T03:31:32;21.90;99.90
27164;DHT22;14685;50.618;7.024;2022-08-18T03:33:59;21.90;99.90
27164;DHT22;14685;50.618;7.024;2022-08-18T03:36:30;21.90;99.90
27164;DHT22;14685;50.618;7.024;2022-08-18T03:39:05;21.80;99.90
27164;DHT22;14685;50.618;7.024;2022-08-18T03:41:32;21.90;99.90
27164;DHT22;14685;50.618;7.024;2022-08-18T03:44:20;21.80;99.90
27164;DHT22;14685;50.618;7.024;2022-08-18T03:46:48;21.80;99.90
27164;DHT22;14685;50.618;7.024;2022-08-18T03:49:16;21.80;99.90
27164;DHT22;14685;50.618;7.024;2022-08-18T03:51:44;21.70;99.90
27164;DHT22;14685;50.618;7.024;2022-08-18T03:54:13;21.70;99.90
27164;DHT22;14685;50.618;7.024;2022-08-18T03:56:43;21.50;99.90
27164;DHT22;14685;50.618;7.024;2022-08-18T03:59:15;21.50;99.90
27164;DHT22;14685;50.618;7.024;2022-08-18T04:01:45;21.50;99.90
27164;DHT22;14685;50.618;7.024;2022-08-18T04:04:15;21.50;99.90
27164;DHT22;14685;50.618;7.024;2022-08-18T04:06:46;21.60;99.90
27164;DHT22;14685;50.618;7.024;2022-08-18T04:09:16;21.50;99.90
27164;DHT22;14685;50.618;7.024;2022-08-18T04:11:44;21.40;99.90
27164;DHT22;14685;50.618;7.024;2022-08-18T04:14:13;21.20;99.90
27164;DHT22;14685;50.618;7.024;2022-08-18T04:16:41;21.20;99.90
27164;DHT22;14685;50.618;7.024;2022-08-18T04:19:09;21.10;99.90
27164;DHT22;14685;50.618;7.024;2022-08-18T04:21:41;21.10;99.90
27164;DHT22;14685;50.618;7.024;2022-08-18T04:24:10;21.00;99.90
27164;DHT22;14685;50.618;7.024;2022-08-18T04:26:40;21.00;99.90
27164;DHT22;14685;50.618;7.024;2022-08-18T04:29:09;21.00;99.90
27164;DHT22;14685;50.618;7.024;2022-08-18T04:31:36;21.10;99.90
27164;DHT22;14685;50.618;7.024;2022-08-18T04:34:04;21.10;99.90
27164;DHT22;14685;50.618;7.024;2022-08-18T04:36:33;21.20;99.90
27164;DHT22;14685;50.618;7.024;2022-08-18T04:39:01;21.20;99.90
27164;DHT22;14685;50.618;7.024;2022-08-18T04:41:29;21.20;99.90
27164;DHT22;14685;50.618;7.024;2022-08-18T04:43:57;21.30;99.90
27164;DHT22;14685;50.618;7.024;2022-08-18T04:46:25;21.20;99.90
27164;DHT22;14685;50.618;7.024;2022-08-18T04:48:53;21.40;99.90
27164;DHT22;14685;50.618;7.024;2022-08-18T04:51:27;21.30;99.90
27164;DHT22;14685;50.618;7.024;2022-08-18T04:54:14;21.40;99.90
27164;DHT22;14685;50.618;7.024;2022-08-18T04:56:41;21.40;99.90
27164;DHT22;14685;50.618;7.024;2022-08-18T04:59:11;21.50;99.90
27164;DHT22;14685;50.618;7.024;2022-08-18T05:01:42;21.40;99.90
27164;DHT22;14685;50.618;7.024;2022-08-18T05:04:11;21.40;99.90
27164;DHT22;14685;50.618;7.024;2022-08-18T05:06:40;21.40;99.90
27164;DHT22;14685;50.618;7.024;2022-08-18T05:09:10;21.40;99.90
27164;DHT22;14685;50.618;7.024;2022-08-18T05:11:41;21.40;99.90
27164;DHT22;14685;50.618;7.024;2022-08-18T05:14:10;21.30;99.90
27164;DHT22;14685;50.618;7.024;2022-08-18T05:16:38;21.20;99.90
27164;DHT22;14685;50.618;7.024;2022-08-18T05:19:17;21.20;99.90
27164;DHT22;14685;50.618;7.024;2022-08-18T05:21:57;21.20;99.90
27164;DHT22;14685;50.618;7.024;2022-08-18T05:24:27;21.20;99.90
27164;DHT22;14685;50.618;7.024;2022-08-18T05:27:03;21.20;99.90
27164;DHT22;14685;50.618;7.024;2022-08-18T05:29:31;21.20;99.90
27164;DHT22;14685;50.618;7.024;2022-08-18T05:32:12;21.30;99.90
27164;DHT22;14685;50.618;7.024;2022-08-18T05:35:12;21.40;99.90
27164;DHT22;14685;50.618;7.024;2022-08-18T05:40:37;21.40;99.90
27164;DHT22;14685;50.618;7.024;2022-08-18T05:43:05;21.50;99.90
27164;DHT22;14685;50.618;7.024;2022-08-18T05:45:34;21.50;99.90
27164;DHT22;14685;50.618;7.024;2022-08-18T05:48:01;21.50;99.90
27164;DHT22;14685;50.618;7.024;2022-08-18T05:50:31;21.50;99.90
27164;DHT22;14685;50.618;7.024;2022-08-18T05:53:05;21.60;99.90
27164;DHT22;14685;50.618;7.024;2022-08-18T05:56:01;21.60;99.90
27164;DHT22;14685;50.618;7.024;2022-08-18T05:58:52;21.70;99.90
27164;DHT22;14685;50.618;7.024;2022-08-18T06:01:25;21.80;99.90
27164;DHT22;14685;50.618;7.024;2022-08-18T06:07:33;21.80;99.90
27164;DHT22;14685;50.618;7.024;2022-08-18T06:10:02;21.80;99.90
27164;DHT22;14685;50.618;7.024;2022-08-18T06:12:35;21.80;99.90
27164;DHT22;14685;50.618;7.024;2022-08-18T06:15:24;21.90;99.90
27164;DHT22;14685;50.618;7.024;2022-08-18T06:23:34;22.00;99.90
27164;DHT22;14685;50.618;7.024;2022-08-18T06:31:59;22.10;99.90
27164;DHT22;14685;50.618;7.024;2022-08-18T06:40:25;22.20;99.90
27164;DHT22;14685;50.618;7.024;2022-08-18T06:42:53;22.10;99.90
27164;DHT22;14685;50.618;7.024;2022-08-18T06:45:25;22.20;99.90
27164;DHT22;14685;50.618;7.024;2022-08-18T06:48:18;22.20;99.90
27164;DHT22;14685;50.618;7.024;2022-08-18T06:50:54;22.20;99.90
27164;DHT22;14685;50.618;7.024;2022-08-18T06:53:21;22.20;99.90
27164;DHT22;14685;50.618;7.024;2022-08-18T06:56:31;22.20;99.90
27164;DHT22;14685;50.618;7.024;2022-08-18T07:01:42;22.20;99.90
27164;DHT22;14685;50.618;7.024;2022-08-18T07:04:12;22.20;99.90
27164;DHT22;14685;50.618;7.024;2022-08-18T07:06:55;22.30;99.90
27164;DHT22;14685;50.618;7.024;2022-08-18T07:09:23;22.30;99.90
27164;DHT22;14685;50.618;7.024;2022-08-18T07:12:06;22.30;99.90
27164;DHT22;14685;50.618;7.024;2022-08-18T07:14:52;22.30;99.90
27164;DHT22;14685;50.618;7.024;2022-08-18T07:17:24;22.30;99.90
27164;DHT22;14685;50.618;7.024;2022-08-18T07:20:24;22.40;99.90
27164;DHT22;14685;50.618;7.024;2022-08-18T07:23:00;22.30;99.90
27164;DHT22;14685;50.618;7.024;2022-08-18T07:25:40;22.40;99.90
27164;DHT22;14685;50.618;7.024;2022-08-18T07:28:26;22.40;99.90
27164;DHT22;14685;50.618;7.024;2022-08-18T07:33:50;22.40;99.90
27164;DHT22;14685;50.618;7.024;2022-08-18T07:36:18;22.40;99.90
27164;DHT22;14685;50.618;7.024;2022-08-18T07:39:04;22.40;99.90
27164;DHT22;14685;50.618;7.024;2022-08-18T07:41:43;22.40;99.90
27164;DHT22;14685;50.618;7.024;2022-08-18T07:47:01;22.40;99.90
27164;DHT22;14685;50.618;7.024;2022-08-18T07:49:34;22.40;99.90
27164;DHT22;14685;50.618;7.024;2022-08-18T07:52:20;22.40;99.90
27164;DHT22;14685;50.618;7.024;2022-08-18T07:55:27;22.40;99.90
27164;DHT22;14685;50.618;7.024;2022-08-18T08:01:00;22.30;99.90
27164;DHT22;14685;50.618;7.024;2022-08-18T08:06:16;22.40;99.90
27164;DHT22;14685;50.618;7.024;2022-08-18T08:09:10;22.40;99.90
27164;DHT22;14685;50.618;7.024;2022-08-18T08:12:39;22.40;99.90
27164;DHT22;14685;50.618;7.024;2022-08-18T08:14:49;22.50;99.90
27164;DHT22;14685;50.618;7.024;2022-08-18T08:17:41;22.50;99.90
27164;DHT22;14685;50.618;7.024;2022-08-18T08:25:33;22.50;99.90
27164;DHT22;14685;50.618;7.024;2022-08-18T08:31:43;22.50;99.90
27164;DHT22;14685;50.618;7.024;2022-08-18T08:34:39;22.60;99.90
27164;DHT22;14685;50.618;7.024;2022-08-18T08:40:21;22.70;99.90
27164;DHT22;14685;50.618;7.024;2022-08-18T08:42:54;22.70;99.90
27164;DHT22;14685;50.618;7.024;2022-08-18T08:45:29;22.70;99.90
27164;DHT22;14685;50.618;7.024;2022-08-18T08:48:20;22.70;99.90
27164;DHT22;14685;50.618;7.024;2022-08-18T08:53:48;22.70;99.90
27164;DHT22;14685;50.618;7.024;2022-08-18T08:56:18;22.80;99.90
27164;DHT22;14685;50.618;7.024;2022-08-18T08:58:57;22.80;99.90
27164;DHT22;14685;50.618;7.024;2022-08-18T09:13:05;22.80;99.90
27164;DHT22;14685;50.618;7.024;2022-08-18T09:24:46;22.90;99.90
27164;DHT22;14685;50.618;7.024;2022-08-18T09:27:33;22.90;99.90
27164;DHT22;14685;50.618;7.024;2022-08-18T09:36:13;23.00;99.90
27164;DHT22;14685;50.618;7.024;2022-08-18T09:38:59;23.00;99.90
27164;DHT22;14685;50.618;7.024;2022-08-18T09:42:00;23.00;99.90
27164;DHT22;14685;50.618;7.024;2022-08-18T09:57:42;23.10;99.90
27164;DHT22;14685;50.618;7.024;2022-08-18T10:16:42;23.20;99.90
27164;DHT22;14685;50.618;7.024;2022-08-18T10:22:53;23.20;99.90
27164;DHT22;14685;50.618;7.024;2022-08-18T10:25:34;23.30;99.90
27164;DHT22;14685;50.618;7.024;2022-08-18T10:28:02;23.30;99.90
27164;DHT22;14685;50.618;7.024;2022-08-18T10:36:49;23.50;99.90
27164;DHT22;14685;50.618;7.024;2022-08-18T10:39:21;23.60;99.90
27164;DHT22;14685;50.618;7.024;2022-08-18T10:42:17;23.60;99.90
27164;DHT22;14685;50.618;7.024;2022-08-18T10:44:47;23.70;99.90
27164;DHT22;14685;50.618;7.024;2022-08-18T10:47:24;23.70;99.90
27164;DHT22;14685;50.618;7.024;2022-08-18T10:50:04;24.00;99.90
27164;DHT22;14685;50.618;7.024;2022-08-18T10:56:43;24.20;99.90
27164;DHT22;14685;50.618;7.024;2022-08-18T11:01:30;24.30;99.90
27164;DHT22;14685;50.618;7.024;2022-08-18T11:04:06;24.50;99.90
27164;DHT22;14685;50.618;7.024;2022-08-18T11:06:47;24.50;99.90
27164;DHT22;14685;50.618;7.024;2022-08-18T11:09:25;24.50;99.90
27164;DHT22;14685;50.618;7.024;2022-08-18T11:11:54;24.40;99.90
27164;DHT22;14685;50.618;7.024;2022-08-18T11:19:53;24.30;99.90
27164;DHT22;14685;50.618;7.024;2022-08-18T11:22:29;24.40;99.90
27164;DHT22;14685;50.618;7.024;2022-08-18T11:24:59;24.30;99.90
27164;DHT22;14685;50.618;7.024;2022-08-18T11:27:32;24.30;99.90
27164;DHT22;14685;50.618;7.024;2022-08-18T11:30:04;24.30;99.90
27164;DHT22;14685;50.618;7.024;2022-08-18T11:32:36;24.30;99.90
27164;DHT22;14685;50.618;7.024;2022-08-18T11:35:12;24.20;99.90
27164;DHT22;14685;50.618;7.024;2022-08-18T11:40:38;24.30;99.90
27164;DHT22;14685;50.618;7.024;2022-08-18T11:43:29;24.40;99.90
27164;DHT22;14685;50.618;7.024;2022-08-18T11:46:26;24.50;99.90
27164;DHT22;14685;50.618;7.024;2022-08-18T11:48:57;24.50;99.90
27164;DHT22;14685;50.618;7.024;2022-08-18T11:51:30;24.60;99.90
27164;DHT22;14685;50.618;7.024;2022-08-18T11:54:18;24.60;99.90
27164;DHT22;14685;50.618;7.024;2022-08-18T11:56:45;24.80;99.90
27164;DHT22;14685;50.618;7.024;2022-08-18T12:02:16;24.70;99.90
27164;DHT22;14685;50.618;7.024;2022-08-18T12:04:43;24.80;99.90
27164;DHT22;14685;50.618;7.024;2022-08-18T12:07:24;24.80;99.90
27164;DHT22;14685;50.618;7.024;2022-08-18T12:10:24;24.80;99.90
27164;DHT22;14685;50.618;7.024;2022-08-18T12:12:55;24.80;99.90
27164;DHT22;14685;50.618;7.024;2022-08-18T12:15:29;24.80;99.90
27164;DHT22;14685;50.618;7.024;2022-08-18T12:18:15;24.80;99.90
27164;DHT22;14685;50.618;7.024;2022-08-18T12:20:51;24.80;99.90
27164;DHT22;14685;50.618;7.024;2022-08-18T12:23:18;24.80;99.90
27164;DHT22;14685;50.618;7.024;2022-08-18T12:25:46;24.90;99.90
27164;DHT22;14685;50.618;7.024;2022-08-18T12:28:18;24.90;99.90
27164;DHT22;14685;50.618;7.024;2022-08-18T12:33:22;25.00;99.90
27164;DHT22;14685;50.618;7.024;2022-08-18T12:36:01;25.00;99.90
27164;DHT22;14685;50.618;7.024;2022-08-18T12:38:31;25.10;99.90
27164;DHT22;14685;50.618;7.024;2022-08-18T12:41:02;25.20;99.90
27164;DHT22;14685;50.618;7.024;2022-08-18T12:43:30;25.30;99.90
27164;DHT22;14685;50.618;7.024;2022-08-18T12:45:59;25.30;99.90
27164;DHT22;14685;50.618;7.024;2022-08-18T12:50:55;25.60;99.90
27164;DHT22;14685;50.618;7.024;2022-08-18T12:53:25;25.60;99.90
27164;DHT22;14685;50.618;7.024;2022-08-18T12:58:45;25.70;99.90
27164;DHT22;14685;50.618;7.024;2022-08-18T13:01:12;25.70;99.90
27164;DHT22;14685;50.618;7.024;2022-08-18T13:04:00;25.70;99.90
27164;DHT22;14685;50.618;7.024;2022-08-18T13:06:40;25.70;99.90
27164;DHT22;14685;50.618;7.024;2022-08-18T13:09:25;25.80;99.90
27164;DHT22;14685;50.618;7.024;2022-08-18T13:12:12;25.80;99.90
27164;DHT22;14685;50.618;7.024;2022-08-18T13:14:42;25.80;99.90
27164;DHT22;14685;50.618;7.024;2022-08-18T13:17:11;25.90;99.90
27164;DHT22;14685;50.618;7.024;2022-08-18T13:19:58;25.90;99.90
27164;DHT22;14685;50.618;7.024;2022-08-18T13:22:26;25.90;99.90
27164;DHT22;14685;50.618;7.024;2022-08-18T13:24:59;25.90;99.90
27164;DHT22;14685;50.618;7.024;2022-08-18T13:27:26;26.00;99.90
27164;DHT22;14685;50.618;7.024;2022-08-18T13:30:03;26.00;99.90
27164;DHT22;14685;50.618;7.024;2022-08-18T13:32:51;26.00;99.90
27164;DHT22;14685;50.618;7.024;2022-08-18T13:35:26;26.10;99.90
27164;DHT22;14685;50.618;7.024;2022-08-18T13:38:04;26.10;99.90
27164;DHT22;14685;50.618;7.024;2022-08-18T13:40:48;26.10;99.90
27164;DHT22;14685;50.618;7.024;2022-08-18T13:43:17;26.10;99.90
27164;DHT22;14685;50.618;7.024;2022-08-18T13:45:49;26.20;99.90
27164;DHT22;14685;50.618;7.024;2022-08-18T13:48:21;26.20;99.90
27164;DHT22;14685;50.618;7.024;2022-08-18T13:50:51;26.30;99.90
27164;DHT22;14685;50.618;7.024;2022-08-18T13:53:19;26.30;99.90
27164;DHT22;14685;50.618;7.024;2022-08-18T13:55:47;26.30;99.90
27164;DHT22;14685;50.618;7.024;2022-08-18T13:58:14;26.40;99.90
27164;DHT22;14685;50.618;7.024;2022-08-18T14:00:50;26.40;99.90
27164;DHT22;14685;50.618;7.024;2022-08-18T14:03:40;26.40;99.90
27164;DHT22;14685;50.618;7.024;2022-08-18T14:06:13;26.40;99.90
27164;DHT22;14685;50.618;7.024;2022-08-18T14:08:47;26.40;99.90
27164;DHT22;14685;50.618;7.024;2022-08-18T14:11:16;26.50;99.90
27164;DHT22;14685;50.618;7.024;2022-08-18T14:13:43;26.50;99.90
27164;DHT22;14685;50.618;7.024;2022-08-18T14:16:10;26.50;99.90
27164;DHT22;14685;50.618;7.024;2022-08-18T14:18:45;26.50;99.80
27164;DHT22;14685;50.618;7.024;2022-08-18T14:21:42;26.60;99.80
27164;DHT22;14685;50.618;7.024;2022-08-18T14:24:29;26.60;99.30
27164;DHT22;14685;50.618;7.024;2022-08-18T14:27:23;26.60;99.40
27164;DHT22;14685;50.618;7.024;2022-08-18T14:29:51;26.60;98.70
27164;DHT22;14685;50.618;7.024;2022-08-18T14:32:22;26.60;99.50
27164;DHT22;14685;50.618;7.024;2022-08-18T14:34:57;26.70;99.30
27164;DHT22;14685;50.618;7.024;2022-08-18T14:37:27;26.70;99.20
27164;DHT22;14685;50.618;7.024;2022-08-18T14:39:54;26.70;99.10
27164;DHT22;14685;50.618;7.024;2022-08-18T14:42:22;26.70;99.30
27164;DHT22;14685;50.618;7.024;2022-08-18T14:45:08;26.70;98.90
27164;DHT22;14685;50.618;7.024;2022-08-18T14:47:57;26.80;98.80
27164;DHT22;14685;50.618;7.024;2022-08-18T14:50:25;26.80;98.70
27164;DHT22;14685;50.618;7.024;2022-08-18T14:52:52;26.80;98.40
27164;DHT22;14685;50.618;7.024;2022-08-18T14:55:19;26.80;98.80
27164;DHT22;14685;50.618;7.024;2022-08-18T14:57:47;26.80;99.30
27164;DHT22;14685;50.618;7.024;2022-08-18T15:00:17;26.90;99.00
27164;DHT22;14685;50.618;7.024;2022-08-18T15:02:49;26.90;98.80
27164;DHT22;14685;50.618;7.024;2022-08-18T15:05:17;26.90;98.40
27164;DHT22;14685;50.618;7.024;2022-08-18T15:07:49;26.90;98.40
27164;DHT22;14685;50.618;7.024;2022-08-18T15:10:16;26.90;98.40
27164;DHT22;14685;50.618;7.024;2022-08-18T15:12:49;26.90;98.20
27164;DHT22;14685;50.618;7.024;2022-08-18T15:15:16;26.90;98.10
27164;DHT22;14685;50.618;7.024;2022-08-18T15:17:44;26.90;98.00
27164;DHT22;14685;50.618;7.024;2022-08-18T15:20:19;26.90;97.50
27164;DHT22;14685;50.618;7.024;2022-08-18T15:22:55;26.70;97.40
27164;DHT22;14685;50.618;7.024;2022-08-18T15:25:48;26.60;96.80
27164;DHT22;14685;50.618;7.024;2022-08-18T15:28:20;26.90;97.10
27164;DHT22;14685;50.618;7.024;2022-08-18T15:30:51;27.00;97.70
27164;DHT22;14685;50.618;7.024;2022-08-18T15:33:38;26.90;96.80
27164;DHT22;14685;50.618;7.024;2022-08-18T15:36:06;26.90;97.10
27164;DHT22;14685;50.618;7.024;2022-08-18T15:38:36;26.90;97.00
27164;DHT22;14685;50.618;7.024;2022-08-18T15:41:03;27.00;96.80
27164;DHT22;14685;50.618;7.024;2022-08-18T15:43:35;26.90;96.70
27164;DHT22;14685;50.618;7.024;2022-08-18T15:46:11;26.90;96.90
27164;DHT22;14685;50.618;7.024;2022-08-18T15:48:42;26.90;96.70
27164;DHT22;14685;50.618;7.024;2022-08-18T15:51:10;26.90;96.60
27164;DHT22;14685;50.618;7.024;2022-08-18T15:53:38;26.90;96.50
27164;DHT22;14685;50.618;7.024;2022-08-18T15:56:22;26.90;96.50
27164;DHT22;14685;50.618;7.024;2022-08-18T15:58:51;26.90;96.70
27164;DHT22;14685;50.618;7.024;2022-08-18T16:01:20;26.90;96.90
27164;DHT22;14685;50.618;7.024;2022-08-18T16:03:59;27.10;95.90
27164;DHT22;14685;50.618;7.024;2022-08-18T16:06:30;26.90;95.80
27164;DHT22;14685;50.618;7.024;2022-08-18T16:08:58;26.90;95.60
27164;DHT22;14685;50.618;7.024;2022-08-18T16:11:26;26.90;95.80
27164;DHT22;14685;50.618;7.024;2022-08-18T16:13:55;27.00;95.80
27164;DHT22;14685;50.618;7.024;2022-08-18T16:16:25;26.90;96.00
27164;DHT22;14685;50.618;7.024;2022-08-18T16:19:03;26.90;95.70
27164;DHT22;14685;50.618;7.024;2022-08-18T16:21:30;26.90;95.70
27164;DHT22;14685;50.618;7.024;2022-08-18T16:23:57;26.90;95.80
27164;DHT22;14685;50.618;7.024;2022-08-18T16:26:24;26.90;95.90
27164;DHT22;14685;50.618;7.024;2022-08-18T16:28:51;26.90;96.00
27164;DHT22;14685;50.618;7.024;2022-08-18T16:31:20;26.90;96.10
27164;DHT22;14685;50.618;7.024;2022-08-18T16:33:54;26.90;95.70
27164;DHT22;14685;50.618;7.024;2022-08-18T16:36:23;26.90;96.10
27164;DHT22;14685;50.618;7.024;2022-08-18T16:38:54;26.90;96.10
27164;DHT22;14685;50.618;7.024;2022-08-18T16:41:25;26.80;95.70
27164;DHT22;14685;50.618;7.024;2022-08-18T16:43:52;26.80;96.20
27164;DHT22;14685;50.618;7.024;2022-08-18T16:46:22;26.80;95.90
27164;DHT22;14685;50.618;7.024;2022-08-18T16:48:52;26.90;95.90
27164;DHT22;14685;50.618;7.024;2022-08-18T16:51:23;26.90;95.90
27164;DHT22;14685;50.618;7.024;2022-08-18T16:53:51;26.90;95.90
27164;DHT22;14685;50.618;7.024;2022-08-18T16:56:23;26.90;95.70
27164;DHT22;14685;50.618;7.024;2022-08-18T16:58:51;26.90;95.80
27164;DHT22;14685;50.618;7.024;2022-08-18T17:01:37;26.90;95.20
27164;DHT22;14685;50.618;7.024;2022-08-18T17:04:25;26.90;95.40
27164;DHT22;14685;50.618;7.024;2022-08-18T17:06:55;26.90;94.70
27164;DHT22;14685;50.618;7.024;2022-08-18T17:09:22;26.90;94.70
27164;DHT22;14685;50.618;7.024;2022-08-18T17:11:50;26.90;94.10
27164;DHT22;14685;50.618;7.024;2022-08-18T17:14:20;26.90;93.70
27164;DHT22;14685;50.618;7.024;2022-08-18T17:16:50;26.90;93.90
27164;DHT22;14685;50.618;7.024;2022-08-18T17:19:26;26.90;93.90
27164;DHT22;14685;50.618;7.024;2022-08-18T17:21:53;26.90;94.10
27164;DHT22;14685;50.618;7.024;2022-08-18T17:24:20;26.90;94.00
27164;DHT22;14685;50.618;7.024;2022-08-18T17:30:11;26.90;93.80
27164;DHT22;14685;50.618;7.024;2022-08-18T17:40:50;26.90;94.00
27164;DHT22;14685;50.618;7.024;2022-08-18T17:43:36;26.90;93.60
27164;DHT22;14685;50.618;7.024;2022-08-18T17:46:29;26.80;93.50
27164;DHT22;14685;50.618;7.024;2022-08-18T17:49:29;26.90;94.10
27164;DHT22;14685;50.618;7.024;2022-08-18T17:52:45;26.80;94.10
27164;DHT22;14685;50.618;7.024;2022-08-18T17:55:35;26.90;94.30
27164;DHT22;14685;50.618;7.024;2022-08-18T17:58:30;26.80;94.00
27164;DHT22;14685;50.618;7.024;2022-08-18T18:01:13;26.80;94.10
27164;DHT22;14685;50.618;7.024;2022-08-18T18:03:44;26.80;94.20
27164;DHT22;14685;50.618;7.024;2022-08-18T18:06:21;26.80;94.10
27164;DHT22;14685;50.618;7.024;2022-08-18T18:12:28;26.80;94.20
27164;DHT22;14685;50.618;7.024;2022-08-18T18:15:09;26.80;94.10
27164;DHT22;14685;50.618;7.024;2022-08-18T18:17:44;26.70;94.30
27164;DHT22;14685;50.618;7.024;2022-08-18T18:20:37;26.80;94.30
27164;DHT22;14685;50.618;7.024;2022-08-18T18:23:20;26.80;94.20
27164;DHT22;14685;50.618;7.024;2022-08-18T18:26:32;26.70;94.30
27164;DHT22;14685;50.618;7.024;2022-08-18T18:29:29;26.70;94.30
27164;DHT22;14685;50.618;7.024;2022-08-18T18:32:34;26.70;94.40
27164;DHT22;14685;50.618;7.024;2022-08-18T18:38:38;26.70;94.40
27164;DHT22;14685;50.618;7.024;2022-08-18T18:43:48;26.70;94.40
27164;DHT22;14685;50.618;7.024;2022-08-18T18:46:32;26.70;94.40
27164;DHT22;14685;50.618;7.024;2022-08-18T18:49:22;26.60;94.40
27164;DHT22;14685;50.618;7.024;2022-08-18T18:55:02;26.60;94.50
27164;DHT22;14685;50.618;7.024;2022-08-18T19:01:06;26.60;94.50
27164;DHT22;14685;50.618;7.024;2022-08-18T19:04:09;26.60;94.70
27164;DHT22;14685;50.618;7.024;2022-08-18T19:07:24;26.60;94.70
27164;DHT22;14685;50.618;7.024;2022-08-18T19:10:16;26.50;94.60
27164;DHT22;14685;50.618;7.024;2022-08-18T19:12:58;26.50;94.60
27164;DHT22;14685;50.618;7.024;2022-08-18T19:15:33;26.50;94.70